Time;durP1;ratioP1;P1;durP2;ratioP2;P2;SDS_P1;SDS_P2;PMS_P1;PMS_P2;Temp;Humidity;BMP_temperature;BMP_pressure;BME280_temperature;BME280_humidity;BME280_pressure;Samples;Min_cycle;Max_cycle;Signal;HPM_P1;HPM_P2
2022/12/03 00:02:30;;;;;;;25.50;13.85;;;;;;;3.34;99.00;101147.69;8365650;28;20065;-48
2022/12/03 00:06:30;;;;;;;21.35;11.35;;;;;;;3.37;97.34;101152.88;8372542;28;20451;-49
2022/12/03 00:10:31;;;;;;;27.30;13.23;;;;;;;3.38;98.19;101132.34;8372024;28;20047;-48
2022/12/03 00:14:31;;;;;;;28.52;13.95;;;;;;;3.35;97.91;101138.72;8371797;28;20090;-50
2022/12/03 00:18:32;;;;;;;25.42;13.02;;;;;;;3.36;98.36;101135.09;8371662;28;20043;-48
2022/12/03 00:22:32;;;;;;;22.65;13.02;;;;;;;3.33;97.80;101135.25;8371445;28;20109;-50
2022/12/03 00:26:33;;;;;;;22.30;12.73;;;;;;;3.29;98.17;101139.03;8371200;28;20065;-48
2022/12/03 00:30:33;;;;;;;26.23;13.35;;;;;;;3.25;98.29;101126.78;8371609;28;20037;-48
2022/12/03 00:34:34;;;;;;;23.67;12.52;;;;;;;3.24;98.80;101125.06;8371810;28;20033;-49
2022/12/03 00:38:34;;;;;;;26.98;13.05;;;;;;;3.21;99.08;101125.22;8371527;28;20029;-50
2022/12/03 00:42:35;;;;;;;25.60;13.65;;;;;;;3.18;99.18;101125.38;8371733;28;20064;-50
2022/12/03 00:46:59;;;;;;;28.60;13.48;;;;;;;3.18;99.46;101114.69;8372077;28;20127;-49
2022/12/03 00:51:00;;;;;;;28.08;13.77;;;;;;;3.15;99.22;101113.97;8370860;28;20048;-48
2022/12/03 00:55:00;;;;;;;24.45;12.52;;;;;;;3.16;99.15;101111.22;8371213;28;20094;-48
2022/12/03 00:59:01;;;;;;;28.15;14.07;;;;;;;3.16;99.33;101116.56;8370456;28;20102;-50
2022/12/03 01:03:02;;;;;;;27.23;13.70;;;;;;;3.15;99.41;101112.19;8370933;28;20045;-48
2022/12/03 01:07:02;;;;;;;26.08;13.52;;;;;;;3.16;99.67;101110.34;8371688;28;20054;-48
2022/12/03 01:11:36;;;;;;;24.40;12.10;;;;;;;3.17;98.88;101112.94;8370746;28;20124;-48
2022/12/03 01:15:23;;;;;;;25.27;13.27;;;;;;;3.21;99.47;101114.53;8371208;28;20033;-48
2022/12/03 01:19:24;;;;;;;26.52;13.00;;;;;;;3.23;99.24;101128.66;8371391;28;20561;-49
2022/12/03 01:23:24;;;;;;;25.05;13.45;;;;;;;3.23;99.07;101123.31;8370375;28;20033;-48
2022/12/03 01:27:25;;;;;;;25.58;13.07;;;;;;;3.23;98.96;101127.81;8369907;28;20048;-49
2022/12/03 01:32:26;;;;;;;24.85;12.77;;;;;;;3.25;98.46;101126.78;8374246;28;20037;-50
2022/12/03 01:35:46;;;;;;;27.52;13.82;;;;;;;3.25;98.43;101118.78;8375886;28;20041;-49
2022/12/03 01:39:46;;;;;;;26.08;13.45;;;;;;;3.27;98.71;101121.38;8376659;28;20044;-48
2022/12/03 01:43:48;;;;;;;24.60;12.80;;;;;;;3.29;98.29;101123.00;8374504;28;20048;-50
2022/12/03 01:47:48;;;;;;;20.83;11.52;;;;;;;3.30;98.21;101124.72;8374983;28;20074;-48
2022/12/03 01:51:51;;;;;;;23.20;12.18;;;;;;;3.31;98.08;101121.13;8375683;28;20041;-48
2022/12/03 01:55:51;;;;;;;22.90;11.73;;;;;;;3.32;98.54;101119.28;8376947;28;20461;-49
2022/12/03 01:59:54;;;;;;;25.45;13.32;;;;;;;3.28;99.06;101121.28;8376822;28;20091;-48
2022/12/03 02:03:54;;;;;;;25.70;12.48;;;;;;;3.25;98.75;101116.09;8375344;28;20044;-52
2022/12/03 02:07:56;;;;;;;23.92;12.23;;;;;;;3.27;99.12;101119.53;8376061;28;20060;-48
2022/12/03 02:11:56;;;;;;;21.23;12.07;;;;;;;3.25;98.90;101121.44;8374627;28;20041;-48
2022/12/03 02:15:57;;;;;;;23.10;12.85;;;;;;;3.26;98.47;101120.50;8376219;28;20045;-48
2022/12/03 02:20:00;;;;;;;25.00;12.27;;;;;;;3.30;98.75;101122.03;8381744;28;20051;-47
2022/12/03 02:24:20;;;;;;;22.77;10.95;;;;;;;3.30;98.93;101124.72;8390373;28;20049;-48
2022/12/03 02:28:21;;;;;;;21.55;11.05;;;;;;;3.29;99.15;101120.31;8378293;28;20047;-50
2022/12/03 02:32:22;;;;;;;22.52;11.68;;;;;;;3.31;98.44;101109.56;8375341;28;20028;-48
2022/12/03 02:36:23;;;;;;;22.15;11.82;;;;;;;3.32;98.72;101116.63;8374837;28;20513;-48
2022/12/03 02:40:27;;;;;;;22.48;11.52;;;;;;;3.34;98.20;101109.41;8375603;28;20435;-48
2022/12/03 02:44:28;;;;;;;25.02;11.13;;;;;;;3.36;97.81;101111.03;8390771;28;20040;-48
2022/12/03 02:48:33;;;;;;;23.58;11.60;;;;;;;3.34;97.37;101109.41;8390933;28;20049;-48
2022/12/03 02:52:34;;;;;;;20.42;10.55;;;;;;;3.36;97.57;101107.53;8390800;28;20040;-48
2022/12/03 02:56:34;;;;;;;20.17;11.05;;;;;;;3.32;97.45;101104.13;8375187;28;20510;-48
2022/12/03 03:00:36;;;;;;;21.23;10.27;;;;;;;3.27;97.96;101097.31;8374133;28;20033;-49
2022/12/03 03:04:37;;;;;;;21.48;11.57;;;;;;;3.23;97.71;101096.59;8374273;28;20033;-49
2022/12/03 03:08:39;;;;;;;23.50;11.48;;;;;;;3.21;98.09;101100.31;8374341;28;20040;-48
2022/12/03 03:12:40;;;;;;;19.90;11.10;;;;;;;3.21;97.69;101098.50;8373544;28;20033;-48
2022/12/03 03:16:41;;;;;;;25.17;11.18;;;;;;;3.20;98.33;101095.91;8374138;28;20344;-48
2022/12/03 03:20:41;;;;;;;21.65;10.40;;;;;;;3.20;98.60;101085.22;8372415;28;20032;-48
2022/12/03 03:24:42;;;;;;;19.02;10.25;;;;;;;3.22;98.79;101081.53;8386178;28;20040;-48
2022/12/03 03:28:47;;;;;;;21.98;10.80;;;;;;;3.24;99.24;101093.00;8381407;28;20048;-48
2022/12/03 03:32:47;;;;;;;20.23;10.88;;;;;;;3.26;99.04;101091.09;8373176;28;20043;-49
2022/12/03 03:36:48;;;;;;;23.05;11.80;;;;;;;3.31;99.04;101078.38;8373379;28;20167;-50
2022/12/03 03:40:50;;;;;;;31.38;13.07;;;;;;;3.33;99.23;101088.97;8373285;28;20063;-52
2022/12/03 03:44:51;;;;;;;23.30;11.35;;;;;;;3.37;98.77;101088.75;8373416;28;20498;-51
2022/12/03 03:48:52;;;;;;;29.95;12.85;;;;;;;3.34;99.10;101088.91;8372798;28;20521;-50
2022/12/03 03:52:53;;;;;;;22.25;10.55;;;;;;;3.38;98.64;101079.75;8372466;28;20152;-50
2022/12/03 03:56:54;;;;;;;20.85;10.95;;;;;;;3.41;98.88;101079.59;8373644;28;20044;-49
2022/12/03 04:00:55;;;;;;;20.42;11.07;;;;;;;3.39;98.93;101076.13;8372572;28;20032;-50
2022/12/03 04:04:55;;;;;;;20.10;11.73;;;;;;;3.40;99.41;101082.34;8373577;28;20043;-49
2022/12/03 04:08:56;;;;;;;22.30;11.68;;;;;;;3.40;99.08;101080.56;8372995;28;20049;-51
2022/12/03 04:12:56;;;;;;;26.38;12.23;;;;;;;3.41;99.77;101084.06;8372287;28;20040;-51
2022/12/03 04:16:57;;;;;;;23.80;11.45;;;;;;;3.41;99.34;101079.59;8368916;28;20083;-50
2022/12/03 04:22:38;;;;;;;24.15;11.80;;;;;;;3.44;99.35;101076.78;8372177;28;20040;-50
2022/12/03 04:29:38;;;;;;;20.80;11.27;;;;;;;3.44;99.21;101074.09;8358240;28;20040;-51
2022/12/03 04:38:00;;;;;;;19.75;10.10;;;;;;;3.50;98.51;101065.75;8381362;28;20051;-50
2022/12/03 04:42:01;;;;;;;19.98;10.30;;;;;;;3.50;98.53;101063.06;8388502;28;20505;-51
2022/12/03 04:46:01;;;;;;;18.23;10.02;;;;;;;3.51;98.34;101061.28;8389505;28;20413;-50
2022/12/03 04:50:04;;;;;;;21.25;10.32;;;;;;;3.50;98.65;101062.19;8388737;28;20048;-50
2022/12/03 04:54:04;;;;;;;20.15;10.30;;;;;;;3.52;98.94;101061.19;8388531;28;20041;-49
2022/12/03 04:58:05;;;;;;;19.73;10.80;;;;;;;3.51;98.14;101066.63;8389356;28;20524;-49
2022/12/03 05:02:06;;;;;;;22.63;10.98;;;;;;;3.56;97.34;101061.88;8387788;28;20040;-50
2022/12/03 05:06:07;;;;;;;26.48;12.20;;;;;;;3.63;96.74;101064.13;8392557;28;20072;-53
2022/12/03 05:10:09;;;;;;;25.05;12.27;;;;;;;3.62;96.87;101057.06;8394546;28;20036;-50
2022/12/03 05:14:10;;;;;;;24.38;12.63;;;;;;;3.65;95.81;101062.25;8394083;28;20490;-51
2022/12/03 05:18:10;;;;;;;27.02;12.02;;;;;;;3.65;94.23;101056.03;8394156;28;20413;-50
2022/12/03 05:22:11;;;;;;;24.48;12.10;;;;;;;3.65;93.41;101056.91;8394223;28;20037;-51
2022/12/03 05:26:11;;;;;;;24.38;11.77;;;;;;;3.60;92.90;101052.75;8393557;28;20040;-50
2022/12/03 05:30:12;;;;;;;26.55;12.23;;;;;;;3.59;91.84;101051.88;8394283;28;20040;-53
2022/12/03 05:34:13;;;;;;;33.45;12.82;;;;;;;3.56;92.37;101043.16;8393790;28;20103;-53
2022/12/03 05:38:14;;;;;;;29.20;12.43;;;;;;;3.53;92.65;101046.00;8393107;28;20036;-52
2022/12/03 05:43:15;;;;;;;23.35;11.95;;;;;;;3.56;91.36;101043.16;8394010;28;20085;-52
2022/12/03 05:46:58;;;;;;;26.13;11.90;;;;;;;3.59;91.02;101041.19;8393291;28;20056;-51
2022/12/03 05:50:59;;;;;;;26.90;11.98;;;;;;;3.56;91.23;101037.81;8392633;28;20387;-51
2022/12/03 05:54:59;;;;;;;26.50;11.60;;;;;;;3.55;91.01;101038.78;8392443;28;20037;-51
2022/12/03 05:59:02;;;;;;;22.63;10.77;;;;;;;3.57;90.51;101042.22;8392908;28;20055;-51
2022/12/03 06:03:05;;;;;;;19.80;9.75;;;;;;;3.57;89.26;101039.56;8392546;28;20435;-50
2022/12/03 06:07:05;;;;;;;23.60;10.40;;;;;;;3.57;90.15;101040.41;8392594;28;20468;-50
2022/12/03 06:11:05;;;;;;;20.95;10.45;;;;;;;3.62;88.86;101046.38;8391916;28;20032;-49
2022/12/03 06:15:07;;;;;;;21.00;9.88;;;;;;;3.63;88.56;101045.41;8392311;28;20037;-50
2022/12/03 06:19:08;;;;;;;18.60;9.95;;;;;;;3.63;88.86;101042.75;8392978;28;20098;-53
2022/12/03 06:23:08;;;;;;;22.13;10.48;;;;;;;3.64;88.06;101039.16;8389205;28;20064;-50
2022/12/03 06:27:09;;;;;;;25.02;11.10;;;;;;;3.66;88.17;101039.91;8380282;28;20053;-50
2022/12/03 06:31:09;;;;;;;22.27;11.05;;;;;;;3.67;88.24;101044.31;8372329;28;20032;-51
2022/12/03 06:35:11;;;;;;;26.23;11.70;;;;;;;3.67;88.48;101038.97;8392388;28;20047;-50
2022/12/03 06:39:12;;;;;;;19.67;9.90;;;;;;;3.67;88.99;101038.97;8391493;28;20502;-50
2022/12/03 06:43:13;;;;;;;23.25;9.68;;;;;;;3.66;89.47;101044.41;8382357;28;20410;-49
2022/12/03 06:47:13;;;;;;;28.27;12.02;;;;;;;3.66;89.06;101050.59;8370231;28;20049;-51
2022/12/03 06:51:14;;;;;;;19.60;10.30;;;;;;;3.67;90.37;101051.47;8381057;28;20104;-51
2022/12/03 06:55:14;;;;;;;21.48;10.23;;;;;;;3.67;89.74;101044.31;8391393;28;20809;-50
2022/12/03 06:59:15;;;;;;;26.60;11.52;;;;;;;3.68;89.20;101043.38;8390925;28;20417;-50
2022/12/03 07:03:15;;;;;;;24.02;10.75;;;;;;;3.65;89.32;101042.66;8389335;28;20056;-50
2022/12/03 07:07:16;;;;;;;19.90;10.70;;;;;;;3.64;88.75;101038.28;8388599;28;20048;-53
2022/12/03 07:11:31;;;;;;;19.35;9.80;;;;;;;3.64;88.77;101041.81;8391376;28;20521;-50
2022/12/03 07:15:32;;;;;;;20.05;10.15;;;;;;;3.66;88.55;101044.41;8369392;28;20111;-51
2022/12/03 07:19:33;;;;;;;21.02;9.57;;;;;;;3.63;89.82;101042.75;8365773;28;20098;-54
2022/12/03 07:23:33;;;;;;;26.23;10.90;;;;;;;3.64;88.55;101044.50;8377117;28;20043;-53
2022/12/03 07:27:34;;;;;;;21.85;10.43;;;;;;;3.63;89.58;101042.75;8364010;28;20060;-53
2022/12/03 07:31:34;;;;;;;21.33;9.98;;;;;;;3.63;89.63;101042.75;8376537;28;20032;-52
2022/12/03 07:35:35;;;;;;;20.02;9.45;;;;;;;3.63;90.34;101048.09;8364718;28;20048;-51
2022/12/03 07:39:35;;;;;;;21.73;11.88;;;;;;;3.59;93.35;101041.19;8361884;28;20498;-51
2022/12/03 07:43:36;;;;;;;30.00;12.68;;;;;;;3.55;96.50;101049.47;8365456;28;20039;-53
2022/12/03 07:47:36;;;;;;;28.17;13.13;;;;;;;3.52;97.68;101047.84;8368650;28;20072;-49
2022/12/03 07:51:37;;;;;;;36.35;14.68;;;;;;;3.49;98.86;101049.78;8368413;28;20082;-49
2022/12/03 07:55:37;;;;;;;36.28;15.00;;;;;;;3.46;99.09;101042.81;8365317;28;20041;-51
2022/12/03 07:59:38;;;;;;;36.92;15.95;;;;;;;3.50;100.00;101040.81;8366035;28;20059;-53
2022/12/03 08:03:38;;;;;;;34.60;14.77;;;;;;;3.46;99.90;101033.94;8371639;28;20051;-51
2022/12/03 08:07:39;;;;;;;33.53;13.80;;;;;;;3.45;99.36;101041.06;8362843;28;20082;-51
2022/12/03 08:11:41;;;;;;;33.83;14.82;;;;;;;3.48;99.85;101037.38;8362758;28;20418;-54
2022/12/03 08:15:42;;;;;;;29.13;13.52;;;;;;;3.46;99.74;101040.16;8363499;28;20084;-55
2022/12/03 08:19:45;;;;;;;30.20;13.60;;;;;;;3.48;100.00;101054.25;8362934;28;20451;-51
2022/12/03 08:23:46;;;;;;;30.83;13.93;;;;;;;3.45;99.66;101053.59;8370075;28;20493;-54
2022/12/03 08:27:47;;;;;;;36.22;13.65;;;;;;;3.47;99.97;101052.53;8349580;28;20044;-51
2022/12/03 08:31:50;;;;;;;27.17;12.77;;;;;;;3.43;99.29;101051.00;8347967;28;20048;-53
2022/12/03 08:35:51;;;;;;;31.02;12.88;;;;;;;3.44;99.47;101058.06;8360701;28;20152;-53
2022/12/03 08:39:53;;;;;;;31.50;13.77;;;;;;;3.45;98.82;101054.44;8369860;28;20036;-53
2022/12/03 08:43:54;;;;;;;32.13;14.30;;;;;;;3.46;98.27;101047.28;8366981;28;20135;-53
2022/12/03 08:47:56;;;;;;;33.50;13.10;;;;;;;3.48;98.31;101048.06;8375163;28;20133;-51
2022/12/03 08:52:00;;;;;;;31.20;12.80;;;;;;;3.47;97.85;101044.53;8375354;28;20047;-52
2022/12/03 08:56:04;;;;;;;30.33;12.97;;;;;;;3.48;97.46;101050.75;8384367;28;20032;-53
2022/12/03 09:00:22;;;;;;;31.52;12.07;;;;;;;3.54;97.97;101053.94;8355614;28;20037;-53
2022/12/03 09:04:30;;;;;;;32.25;12.70;;;;;;;3.55;96.91;101044.13;8343290;28;20582;-54
2022/12/03 09:08:30;;;;;;;29.05;12.50;;;;;;;3.58;96.61;101049.28;8349660;28;20639;-50
2022/12/03 09:12:31;;;;;;;31.05;12.05;;;;;;;3.57;95.79;101048.44;8389146;28;20440;-53
2022/12/03 09:16:31;;;;;;;29.67;13.10;;;;;;;3.63;95.23;101045.41;8385018;28;20036;-53
2022/12/03 09:20:32;;;;;;;30.67;13.27;;;;;;;3.66;95.22;101053.25;8375757;28;20381;-53
2022/12/03 09:24:32;;;;;;;24.80;11.15;;;;;;;3.68;95.14;101050.50;8390165;28;20086;-52
2022/12/03 09:28:33;;;;;;;24.58;11.15;;;;;;;3.64;94.23;101044.50;8387042;28;20050;-51
2022/12/03 09:32:33;;;;;;;26.92;11.32;;;;;;;3.69;94.29;101047.75;8386148;28;20105;-50
2022/12/03 09:36:36;;;;;;;25.35;11.20;;;;;;;3.69;93.23;101041.56;8373716;28;20032;-50
2022/12/03 09:40:36;;;;;;;26.58;11.40;;;;;;;3.76;93.51;101048.28;8375617;28;20033;-54
2022/12/03 09:44:37;;;;;;;23.17;10.60;;;;;;;3.75;93.05;101041.19;8386272;28;20032;-53
2022/12/03 09:48:39;;;;;;;22.98;11.50;;;;;;;3.76;92.43;101038.44;8375087;28;20090;-50
2022/12/03 09:52:39;;;;;;;26.63;10.55;;;;;;;3.77;92.41;101033.97;8389757;28;20041;-51
2022/12/03 09:56:40;;;;;;;26.67;11.05;;;;;;;3.78;91.66;101028.53;8390330;28;20029;-52
2022/12/03 10:00:43;;;;;;;24.33;10.88;;;;;;;3.79;92.02;101027.56;8389672;28;20085;-50
2022/12/03 10:04:44;;;;;;;24.60;10.73;;;;;;;3.86;93.52;101023.63;8391131;28;20070;-50
2022/12/03 10:08:47;;;;;;;26.00;10.93;;;;;;;3.88;92.74;101021.72;8389265;28;20124;-54
2022/12/03 10:12:50;;;;;;;27.48;12.15;;;;;;;3.93;92.16;101030.34;8389025;28;20044;-52
2022/12/03 10:16:51;;;;;;;28.63;12.05;;;;;;;4.02;91.89;101018.25;8391183;28;20044;-54
2022/12/03 10:20:52;;;;;;;25.90;11.82;;;;;;;4.00;89.89;101015.66;8390366;28;20033;-50
2022/12/03 10:25:07;;;;;;;23.80;10.70;;;;;;;4.11;89.38;101006.19;8370672;28;20045;-50
2022/12/03 10:29:30;;;;;;;19.45;10.77;;;;;;;4.14;88.99;101006.03;8373548;28;20040;-52
2022/12/03 10:33:34;;;;;;;21.48;10.88;;;;;;;4.13;88.75;100998.91;8382198;28;20580;-52
2022/12/03 10:37:34;;;;;;;22.50;10.38;;;;;;;4.17;89.40;101000.50;8356619;28;20521;-52
2022/12/03 10:41:36;;;;;;;24.73;11.05;;;;;;;4.17;89.15;101003.16;8355499;28;20379;-50
2022/12/03 10:45:37;;;;;;;20.20;10.02;;;;;;;4.11;87.91;100984.78;8356514;28;20048;-50
2022/12/03 10:49:40;;;;;;;24.10;10.80;;;;;;;4.14;88.13;100987.28;8356449;28;20057;-51
2022/12/03 10:53:41;;;;;;;23.20;10.90;;;;;;;4.19;88.96;100987.88;8355222;28;20037;-51
2022/12/03 10:57:41;;;;;;;22.70;10.43;;;;;;;4.19;88.36;100982.50;8394010;28;20086;-50
2022/12/03 11:01:42;;;;;;;24.48;11.50;;;;;;;4.19;88.01;100967.34;8377206;28;20040;-50
2022/12/03 11:05:43;;;;;;;22.33;11.85;;;;;;;4.26;88.38;100967.81;8387536;28;20459;-51
2022/12/03 11:09:46;;;;;;;29.45;11.35;;;;;;;4.32;88.66;100946.03;8384853;28;20047;-53
2022/12/03 11:13:52;;;;;;;23.95;11.07;;;;;;;4.31;88.74;100938.97;8388315;28;20067;-53
2022/12/03 11:17:53;;;;;;;23.40;10.73;;;;;;;4.30;87.59;100939.94;8388647;28;20032;-54
2022/12/03 11:31:10;;;;;;;24.83;11.48;;;;;;;4.48;88.22;100930.81;8381531;27;20416;-51
2022/12/03 11:35:14;;;;;;;22.77;11.20;;;;;;;4.47;87.33;100929.06;8382546;28;20041;-49
2022/12/03 11:39:54;;;;;;;23.10;12.00;;;;;;;4.45;87.59;100925.66;8382100;28;20044;-49
2022/12/03 11:43:57;;;;;;;27.45;12.02;;;;;;;4.47;87.84;100923.72;8380749;28;20041;-48
2022/12/03 11:52:29;;;;;;;26.15;12.48;;;;;;;4.48;88.05;100920.13;8445502;27;20966;-54
2022/12/03 11:56:30;;;;;;;21.92;11.55;;;;;;;4.45;87.56;100906.91;8432540;28;20036;-52
2022/12/03 12:00:31;;;;;;;25.85;13.02;;;;;;;4.41;87.01;100916.06;8448315;28;20046;-52
2022/12/03 12:04:36;;;;;;;28.77;12.88;;;;;;;4.40;88.05;100901.84;8442857;28;20036;-52
2022/12/03 12:08:39;;;;;;;32.05;14.43;;;;;;;4.43;87.90;100900.78;8419779;28;20048;-50
2022/12/03 12:12:44;;;;;;;27.00;12.68;;;;;;;4.51;88.60;100904.72;8420231;28;20052;-52
2022/12/03 12:16:49;;;;;;;26.35;12.40;;;;;;;4.43;88.36;100904.34;8416162;28;20068;-51
2022/12/03 12:20:49;;;;;;;24.73;12.18;;;;;;;4.42;88.26;100883.00;8418313;28;20038;-51
2022/12/03 12:24:52;;;;;;;23.90;11.05;;;;;;;4.41;87.95;100889.28;8410563;28;20067;-50
2022/12/03 12:28:53;;;;;;;24.73;11.98;;;;;;;4.40;88.15;100880.44;8416668;28;20040;-52
2022/12/03 12:33:12;;;;;;;25.83;12.20;;;;;;;4.39;87.64;100877.84;8420864;28;20048;-52
2022/12/03 12:37:20;;;;;;;24.52;11.77;;;;;;;4.39;87.32;100875.16;8411917;28;20128;-51
2022/12/03 12:41:20;;;;;;;26.88;12.43;;;;;;;4.40;88.06;100863.50;8412780;28;20093;-50
2022/12/03 12:45:24;;;;;;;30.27;12.98;;;;;;;4.38;87.32;100860.03;8419564;28;20032;-52
2022/12/03 12:49:25;;;;;;;28.03;12.63;;;;;;;4.39;87.84;100856.44;8421258;28;20052;-52
2022/12/03 12:53:29;;;;;;;27.60;13.48;;;;;;;4.38;88.02;100854.69;8420212;28;20036;-55
2022/12/03 12:57:31;;;;;;;25.42;13.45;;;;;;;4.41;87.93;100854.50;8442484;28;20073;-51
2022/12/03 13:01:34;;;;;;;30.70;14.35;;;;;;;4.39;88.25;100851.06;8367977;28;20414;-52
2022/12/03 13:05:39;;;;;;;28.65;12.80;;;;;;;4.38;88.32;100852.88;8357352;28;20049;-50
2022/12/03 13:09:40;;;;;;;27.88;14.20;;;;;;;4.39;88.07;100856.44;8355428;28;20498;-50
2022/12/03 13:13:41;;;;;;;27.15;13.10;;;;;;;4.39;87.87;100851.06;8385059;28;20430;-50
2022/12/03 13:17:42;;;;;;;28.38;13.68;;;;;;;4.42;88.96;100841.03;8392318;28;20039;-52
2022/12/03 13:21:43;;;;;;;30.48;13.90;;;;;;;4.42;88.54;100837.50;8370889;28;20064;-53
2022/12/03 13:25:44;;;;;;;26.85;14.20;;;;;;;4.40;86.66;100831.38;8370421;28;20513;-51
2022/12/03 13:29:47;;;;;;;30.80;14.25;;;;;;;4.40;86.97;100826.03;8366081;28;20045;-51
2022/12/03 13:33:49;;;;;;;29.48;13.73;;;;;;;4.44;86.70;100822.19;8383025;28;20040;-51
2022/12/03 13:37:50;;;;;;;28.17;13.88;;;;;;;4.44;86.96;100822.19;8398091;28;20047;-54
2022/12/03 13:42:53;;;;;;;30.98;14.10;;;;;;;4.42;86.18;100824.13;8407360;28;20040;-51
2022/12/03 13:46:15;;;;;;;31.88;13.77;;;;;;;4.43;87.51;100815.13;8404148;28;20498;-51
2022/12/03 13:50:30;;;;;;;30.00;14.88;;;;;;;4.41;87.15;100817.03;8410546;28;20055;-52
2022/12/03 13:54:31;;;;;;;30.35;14.52;;;;;;;4.38;86.61;100809.19;8405803;28;20040;-51
2022/12/03 13:58:31;;;;;;;33.65;14.88;;;;;;;4.40;87.16;100818.00;8406881;28;20036;-50
2022/12/03 14:02:32;;;;;;;33.40;15.43;;;;;;;4.38;87.24;100811.88;8392769;28;20043;-50
2022/12/03 14:06:32;;;;;;;32.53;15.32;;;;;;;4.36;86.38;100805.78;8402910;28;20578;-51
2022/12/03 14:10:33;;;;;;;30.83;15.45;;;;;;;4.36;87.74;100808.44;8402432;28;20464;-53
2022/12/03 14:14:33;;;;;;;31.50;14.90;;;;;;;4.37;88.27;100802.13;8393777;28;20044;-51
2022/12/03 14:18:34;;;;;;;36.00;16.08;;;;;;;4.33;88.11;100806.78;8401423;28;20736;-54
2022/12/03 14:22:36;;;;;;;32.83;14.98;;;;;;;4.33;87.69;100808.63;8401807;28;20441;-53
2022/12/03 14:26:37;;;;;;;31.55;16.00;;;;;;;4.31;87.76;100807.84;8398180;28;20029;-54
2022/12/03 14:30:38;;;;;;;37.88;17.48;;;;;;;4.31;88.15;100805.19;8390804;28;20389;-54
2022/12/03 14:34:38;;;;;;;36.40;15.45;;;;;;;4.31;87.07;100814.06;8386987;28;20496;-53
2022/12/03 14:38:39;;;;;;;36.80;16.35;;;;;;;4.28;87.41;100805.38;8399795;28;20046;-50
2022/12/03 14:42:39;;;;;;;37.75;16.90;;;;;;;4.24;86.92;100809.19;8394087;28;20048;-51
2022/12/03 14:46:40;;;;;;;33.90;15.25;;;;;;;4.29;87.47;100809.75;8397356;28;20398;-51
2022/12/03 14:50:40;;;;;;;42.33;16.95;;;;;;;4.28;87.96;100816.06;8411076;28;20126;-54
2022/12/03 14:54:41;;;;;;;36.92;17.17;;;;;;;4.24;87.57;100820.75;8394834;28;20131;-52
2022/12/03 14:58:42;;;;;;;35.70;16.60;;;;;;;4.25;87.29;100824.28;8387040;28;20035;-54
2022/12/03 15:02:42;;;;;;;33.85;15.70;;;;;;;4.25;87.67;100811.78;8386604;28;20119;-54
2022/12/03 15:06:43;;;;;;;44.13;17.58;;;;;;;4.21;87.65;100806.69;8403626;28;20513;-53
2022/12/03 15:10:43;;;;;;;37.97;16.02;;;;;;;4.21;87.67;100799.50;8382895;28;20075;-54
2022/12/03 15:14:44;;;;;;;38.75;16.25;;;;;;;4.23;88.63;100800.28;8381846;28;20083;-51
2022/12/03 15:18:44;;;;;;;35.17;16.98;;;;;;;4.20;89.68;100797.81;8416700;28;20319;-53
2022/12/03 15:22:45;;;;;;;42.38;17.77;;;;;;;4.18;88.93;100798.88;8419966;28;20048;-53
2022/12/03 15:26:45;;;;;;;38.35;16.77;;;;;;;4.20;88.91;100796.97;8421681;28;20051;-51
2022/12/03 15:30:46;;;;;;;38.53;16.50;;;;;;;4.21;88.13;100798.69;8393785;28;20110;-51
2022/12/03 15:34:49;;;;;;;42.53;18.45;;;;;;;4.19;88.13;100805.94;8427520;28;20071;-52
2022/12/03 15:38:50;;;;;;;39.30;16.70;;;;;;;4.19;88.99;100806.78;8407928;28;20149;-54
2022/12/03 15:42:50;;;;;;;40.38;17.20;;;;;;;4.17;89.26;100800.66;8423085;28;20056;-54
2022/12/03 15:46:51;;;;;;;39.45;17.25;;;;;;;4.16;90.07;100804.31;8418579;28;20181;-55
2022/12/03 15:50:51;;;;;;;43.78;18.25;;;;;;;4.13;89.61;100800.94;8385277;28;20043;-51
2022/12/03 15:54:53;;;;;;;42.08;18.55;;;;;;;4.14;89.50;100797.34;8386403;28;20577;-51
2022/12/03 15:58:53;;;;;;;40.28;17.60;;;;;;;4.18;89.24;100798.88;8381716;28;20036;-52
2022/12/03 16:02:54;;;;;;;40.75;16.70;;;;;;;4.16;88.98;100806.13;8357248;28;20515;-52
2022/12/03 16:06:54;;;;;;;42.42;18.38;;;;;;;4.16;88.90;100792.72;8386609;28;20240;-52
2022/12/03 16:10:55;;;;;;;41.25;17.27;;;;;;;4.16;89.40;100800.75;8386078;28;20041;-55
2022/12/03 16:14:55;;;;;;;39.72;17.88;;;;;;;4.14;90.25;100802.69;8391480;28;20071;-51
2022/12/03 16:18:56;;;;;;;44.85;18.13;;;;;;;4.16;89.21;100795.41;8386102;28;20060;-51
2022/12/03 16:22:57;;;;;;;41.88;18.25;;;;;;;4.17;89.95;100802.50;8387148;28;20036;-50
2022/12/03 16:26:57;;;;;;;44.42;18.27;;;;;;;4.14;89.32;100806.19;8382473;28;20051;-50
2022/12/03 16:30:58;;;;;;;39.17;19.02;;;;;;;4.16;89.24;100807.00;8374830;28;20403;-51
2022/12/03 16:34:58;;;;;;;41.60;18.63;;;;;;;4.17;89.82;100802.50;8351077;28;20064;-55
2022/12/03 16:38:59;;;;;;;41.08;18.65;;;;;;;4.13;90.06;100795.59;8362982;28;20040;-52
2022/12/03 16:43:02;;;;;;;42.35;18.30;;;;;;;4.14;90.49;100797.34;8401077;28;20036;-51
2022/12/03 16:47:02;;;;;;;41.45;17.98;;;;;;;4.16;89.78;100801.63;8413909;28;20379;-53
2022/12/03 16:51:03;;;;;;;41.97;18.52;;;;;;;4.16;89.78;100790.06;8402195;28;20043;-50
2022/12/03 16:55:04;;;;;;;45.00;19.85;;;;;;;4.18;90.06;100798.88;8421152;28;20043;-50
2022/12/03 16:59:04;;;;;;;43.50;18.23;;;;;;;4.16;90.35;100790.06;8410034;28;20044;-53
2022/12/03 17:03:05;;;;;;;42.97;19.60;;;;;;;4.18;90.24;100793.50;8400273;28;20043;-51
2022/12/03 17:07:05;;;;;;;43.28;18.20;;;;;;;4.16;90.83;100787.38;8369508;28;20478;-51
2022/12/03 17:11:06;;;;;;;39.83;18.42;;;;;;;4.17;90.32;100787.28;8375488;28;20052;-51
2022/12/03 17:15:07;;;;;;;42.80;18.60;;;;;;;4.17;90.35;100786.44;8394178;28;20283;-51
2022/12/03 17:19:07;;;;;;;47.78;19.27;;;;;;;4.18;90.44;100794.38;8409674;28;20062;-51
2022/12/03 17:23:08;;;;;;;51.75;20.85;;;;;;;4.17;90.47;100784.63;8407341;28;20178;-52
2022/12/03 17:27:10;;;;;;;49.50;18.73;;;;;;;4.19;90.77;100784.53;8408882;28;20039;-53
2022/12/03 17:31:12;;;;;;;42.28;19.40;;;;;;;4.14;91.54;100786.63;8417420;28;20454;-52
2022/12/03 17:35:13;;;;;;;43.05;19.98;;;;;;;4.14;91.33;100781.28;8382672;28;20085;-52
2022/12/03 17:39:13;;;;;;;45.83;19.52;;;;;;;4.16;90.59;100779.34;8408835;28;20036;-51
2022/12/03 17:43:14;;;;;;;47.58;19.27;;;;;;;4.14;91.02;100770.59;8399519;28;20375;-54
2022/12/03 17:47:14;;;;;;;47.58;18.73;;;;;;;4.13;92.52;100774.19;8388406;28;20044;-51
2022/12/03 17:51:15;;;;;;;43.42;19.10;;;;;;;4.11;91.99;100770.78;8409819;28;20044;-52
2022/12/03 17:55:16;;;;;;;42.00;18.45;;;;;;;4.09;92.29;100773.53;8412461;28;20419;-51
2022/12/03 17:59:16;;;;;;;44.00;18.73;;;;;;;4.08;92.73;100767.31;8415178;28;20050;-53
2022/12/03 18:03:17;;;;;;;41.90;17.40;;;;;;;4.13;92.36;100769.72;8394433;28;20036;-51
2022/12/03 18:07:17;;;;;;;42.50;17.98;;;;;;;4.07;92.55;100760.25;8388155;28;20079;-50
2022/12/03 18:11:18;;;;;;;44.17;18.38;;;;;;;4.08;91.84;100756.63;8392187;28;20802;-50
2022/12/03 18:15:18;;;;;;;37.50;16.67;;;;;;;4.08;91.68;100756.63;8418603;28;20040;-53
2022/12/03 18:19:19;;;;;;;38.35;17.70;;;;;;;4.04;92.10;100755.09;8394965;28;20071;-51
2022/12/03 18:23:19;;;;;;;45.92;18.42;;;;;;;4.05;92.44;100756.81;8414718;28;20093;-55
2022/12/03 18:27:20;;;;;;;43.65;17.52;;;;;;;4.05;92.90;100754.13;8420309;28;20044;-51
2022/12/03 18:31:21;;;;;;;46.58;18.38;;;;;;;4.04;92.56;100749.75;8415756;28;20072;-51
2022/12/03 18:35:22;;;;;;;34.58;16.10;;;;;;;4.04;92.02;100752.44;8395153;28;20033;-53
2022/12/03 18:39:26;;;;;;;39.10;16.67;;;;;;;4.03;92.00;100748.00;8393972;28;20067;-51
2022/12/03 18:43:33;;;;;;;37.85;15.98;;;;;;;4.04;92.96;100744.41;8395053;28;20070;-51
2022/12/03 18:47:34;;;;;;;41.55;16.98;;;;;;;4.02;91.98;100748.97;8392025;28;20481;-50
2022/12/03 18:51:34;;;;;;;37.17;16.15;;;;;;;4.04;92.70;100738.19;8375792;28;20045;-52
2022/12/03 18:55:35;;;;;;;35.88;16.33;;;;;;;4.02;92.04;100738.28;8387133;28;20036;-50